My Meet Scores
Camryn Clark, Ultimate Gymnastics - MyMeetScores.com
Top100 | Top Teams | Upcoming Meets | Completed Meets | Latest | Add Scores | Help| Support | Bookmark and Share

Camryn Clark, Ultimate Gymnastics
Personal Bests
LevelVault BarsBeamFloorAA
39.2509.000 9.1008.97536.050
49.4259.475 8.8259.15035.425
59.1008.800 8.5508.95034.675
69.3759.000 9.4009.32536.275
Meet Scores
Date Meet Team Session Level Division Vault Bars Beam Floor AA
2020-02-21 Kinetic Classic Ultimate Gymnastics 01 6 Younger 9.025 18T 8.800 27T 9.125 26T 9.175 31T 36.125 21T
2020-02-15 Magical Classic Ultimate Gymnastics A5 6 A5L6G1 8.425 6 8.575 7 8.975 6 9.100 8 35.075 7
2020-02-07 Harley Meet Womens - Midwest Twisters Ultimate Gymnastics of Gurnee O03 6 Jr A 9.375 1 8.550 8T 8.825 5 9.250 5 36.000 4
2020-01-24 King Arthur Invitational Ultimate Gymnastics 2 6 JR 8.625 6 8.650 6 9.375 3T 9.175 8 35.825 4
2020-01-10 St Jude Benefit Meet Ultimate Gymnastics 2B 6 Jr A 8.675 4T 9.000 4 9.175 2T 9.325 2 36.175 2
2019-12-20 2019 Women's Hawaiian Pineapple Classic Ultimate Gymnastics 3A 6 Ages 10U 9.200 2T 8.500 9 8.800 4 9.250 8 35.750 7T
2019-12-06 Ultimate Wish Classic Ultimate Gymnastics 1 6 JR A 9.325 3 8.250 9 9.400 3 9.300 1 36.275 6
2019-11-08 Illinois Judges Cup Ultimate Gymnastics P1 6 All Ages 9.075 8T 8.700 18T 9.250 8 9.250 14 36.275 6
2019-03-22 Illinois Gymnastics State Championships Ultimate Gymnastics 1 5 JR A 9.100 14 8.275 26 8.350 24 8.950 18T 34.675 23
2019-02-22 2019 SCEGA California Classic - Women Ultimate Gymnastics 7O 5 Jr A 8.400 11 7.900 9T 8.350 8 8.075 12 32.725 12
2019-02-15 Women's Midwest Open Ultimate Gymnastics 05 5 Junior A 8.550 9 8.375 8 8.500 8 8.100 9 33.525 10
2019-01-25 King Arthur Invitational Ultimate Gymnastics 7 5 JR A 8.300 11 8.425 10 7.700 13 8.350 7 32.775 9
2019-01-18 2019 Bravo Classic Ultimate Gymnastics 2A 5 Child 8.500 21 7.900 26 7.950 29 8.650 24 33.000 29
2019-01-11 St Jude Benefit Meet Ultimate Gymnastics 8A 5 Jr A 9.050 11T 8.050 14 8.550 9 8.800 11T 34.450 13
2018-12-14 Hawaiian Pineapple Classic Ultimate Gymnastics 4B 5 Ages9U 8.900 1 8.475 3 8.250 7 8.075 6 33.700 3
2018-11-30 Ultimate Wish Classic Ultimate Gymnastics 6 5 JR A 9.075 9 8.800 9 7.550 19 8.250 16 33.675 18
2018-03-08 Level 4 & 5 State Ultimate Gymnastics All 4 Ch B 8.950 2T 8.800 9T 8.825 20T 8.750 15 35.325 12
2018-03-01 All Handstands On Deck Ultimate Gymnastics 2 4 1 9.425 1 7.850 6 8.350 8 8.775 9 34.400 2
2018-02-17 Women's Midwest Open Ultimate Gymnsatics 14 4 Jr A 8.650 4T 9.475 1 8.400 10T 8.600 12 35.125 5
2018-01-26 King Arthur Invitational Ultimate Gymnsatics 6 4 JRA 8.650 12T 8.900 6 8.400 20 8.550 10T 34.500 11
2018-01-19 2018 Bravo Classic Ultimate Gymnsatics 12B 4 Child 8.650 8T 8.800 13 8.825 16 9.150 8T 35.425 12
2018-01-12 St Jude Benefit Meet Ultimate Gymnsatics 1A 4 JrA 8.450 3 9.050 1 8.650 9 8.725 3 34.875 2
2017-12-01 Ultimate Wish Classic Ultimate Gymnsatics 12 4 Jr A 9.050 1 8.325 5 8.000 15 8.750 8 34.125 6
2017-11-16 Paul Hamm Thanksgiving Classic - Women Ultimate Gymnsatics 7 4 Younger 8.850 7T 9.150 15 8.150 27 9.050 9T 35.200 15
2017-11-10 Illinois NAWGJ Judges Cup 2017 Ultimate Gymnsatics G6 4 All Ages 8.650 8T 8.650 12 7.800 28 8.700 12T 33.800 17
2017-03-30 2017 Illinois Level 3 & 5 State Ultimate Gymnsatics All 3 Ch C 9.250 17T 8.950 14T 9.100 10T 8.750 22 36.050 14
2017-02-17 Big Classic Ultimate Gymnsatics B 3 Child A 9.150 14T 8.875 10 8.950 12 8.975 15 35.950 11T
2017-02-10 IGI Chicago Style Gymnastics Meet Ultimate Gymnsatics 232L 3 JrA 8.925 18 9.000 7 9.075 6 8.650 11 35.650 9
2017-02-03 2017 Gateway Challenge Ultimate Gymnsatics 4B 3 7 9.000 7 8.350 10 8.925 4 8.200 12 34.475 6
2017-01-20 Sand Dollar/Whitlow Invitational - Gym A Ultimate Gymnsatics A09 3 Jr A 8.050 19 8.000 10 7.850 17 7.850 17 31.750 16
2016-12-16 2016 Aspire Classic Ultimate Gymnsatics 10 3 Younger 8.900 10T 8.450 13T 8.675 4 8.550 15T 34.575 8T
2016-12-02 Ultimate Wish Classic Ultimate Gymnsatics 11 3 Jr A 8.550 14T 8.500 12 8.550 11T 8.750 16 34.350 15
Get your scores on
a t-shirt, pin, or hoodie

www.lazysuits.com